createdAt,value
2018-09-03T00:01:59.667Z,96751.12
2018-09-03T00:05:24.366Z,96752.05
2018-09-03T00:08:49.004Z,96745.55
2018-09-03T00:12:13.632Z,96744.45
2018-09-03T00:15:38.284Z,96736.47
2018-09-03T00:19:02.919Z,96735.69
2018-09-03T00:22:27.614Z,96722.89
2018-09-03T00:25:52.275Z,96729.94
2018-09-03T00:29:17.018Z,96727.36
2018-09-03T00:32:47.039Z,96719.52
2018-09-03T00:36:16.964Z,96717.03
2018-09-03T00:39:46.943Z,96719.42
2018-09-03T00:43:16.955Z,96717.00
2018-09-03T00:46:46.731Z,96721.75
2018-09-03T00:50:11.500Z,96732.97
2018-09-03T00:53:36.123Z,96729.88
2018-09-03T00:57:00.744Z,96739.02
2018-09-03T01:00:25.389Z,96739.57
2018-09-03T01:03:50.018Z,96738.94
2018-09-03T01:07:14.701Z,96748.15
2018-09-03T01:10:39.338Z,96744.42
2018-09-03T01:14:04.001Z,96744.31
2018-09-03T01:17:28.655Z,96743.89
2018-09-03T01:20:53.316Z,96757.61
2018-09-03T01:24:17.956Z,96758.98
2018-09-03T01:27:42.609Z,96761.46
2018-09-03T01:31:07.274Z,96765.44
2018-09-03T01:34:31.912Z,96770.52
2018-09-03T01:37:56.539Z,96771.08
2018-09-03T01:41:21.213Z,96777.02
2018-09-03T01:44:45.878Z,96784.42
2018-09-03T01:48:10.610Z,96778.16
2018-09-03T01:51:35.225Z,96775.03
2018-09-03T01:54:59.844Z,96767.08
2018-09-03T01:58:24.506Z,96770.01
2018-09-03T02:01:49.234Z,96777.42
2018-09-03T02:05:13.882Z,96772.33
2018-09-03T02:08:38.568Z,96760.95
2018-09-03T02:12:03.272Z,96766.27
2018-09-03T02:15:27.966Z,96772.89
2018-09-03T02:18:52.612Z,96768.53
2018-09-03T02:22:17.242Z,96763.50
2018-09-03T02:25:41.942Z,96764.38
2018-09-03T02:29:06.652Z,96758.80
2018-09-03T02:32:31.250Z,96746.73
2018-09-03T02:35:55.907Z,96752.30
2018-09-03T02:39:20.560Z,96746.45
2018-09-03T02:42:45.194Z,96749.34
2018-09-03T02:46:09.842Z,96738.35
2018-09-03T02:49:34.504Z,96731.11
2018-09-03T02:52:59.133Z,96729.26
2018-09-03T02:56:23.792Z,96727.66
2018-09-03T02:59:48.436Z,96722.93
2018-09-03T03:03:13.071Z,96726.36
2018-09-03T03:06:37.693Z,96723.22
2018-09-03T03:10:02.354Z,96717.92
2018-09-03T03:13:27.000Z,96710.85
2018-09-03T03:16:52.656Z,96713.73
2018-09-03T03:20:17.290Z,96707.13
2018-09-03T03:23:41.917Z,96707.86
2018-09-03T03:27:06.558Z,96699.41
2018-09-03T03:30:31.217Z,96697.09
2018-09-03T03:33:55.869Z,96687.70
2018-09-03T03:37:20.518Z,96677.02
2018-09-03T03:40:45.150Z,96672.92
2018-09-03T03:44:09.793Z,96673.95
2018-09-03T03:47:34.497Z,96664.34
2018-09-03T03:50:59.160Z,96665.11
2018-09-03T03:54:23.853Z,96664.36
2018-09-03T03:57:48.588Z,96668.45
2018-09-03T04:01:13.266Z,96658.77
2018-09-03T04:04:37.910Z,96668.05
2018-09-03T04:08:02.691Z,96666.56
2018-09-03T04:11:27.502Z,96660.73
2018-09-03T04:14:52.395Z,96662.30
2018-09-03T04:18:17.092Z,96659.61
2018-09-03T04:21:41.862Z,96667.33
2018-09-03T04:25:06.656Z,96669.91
2018-09-03T04:28:31.336Z,96669.36
2018-09-03T04:31:56.134Z,96674.48
2018-09-03T04:35:20.816Z,96678.87
2018-09-03T04:38:45.542Z,96679.97
2018-09-03T04:42:10.134Z,96682.16
2018-09-03T04:45:34.874Z,96690.09
2018-09-03T04:48:59.658Z,96687.02
2018-09-03T04:52:24.392Z,96679.95
2018-09-03T04:55:49.112Z,96675.88
2018-09-03T04:59:13.766Z,96676.34
2018-09-03T05:02:39.438Z,96683.20
2018-09-03T05:06:04.200Z,96683.70
2018-09-03T05:09:28.854Z,96687.86
2018-09-03T05:12:53.508Z,96685.72
2018-09-03T05:16:18.180Z,96686.86
2018-09-03T05:19:42.861Z,96686.67
2018-09-03T05:23:07.679Z,96688.03
2018-09-03T05:26:32.386Z,96683.84
2018-09-03T05:29:57.140Z,96688.67
2018-09-03T05:33:21.986Z,96695.38
2018-09-03T05:36:46.670Z,96693.99
2018-09-03T05:40:11.352Z,96692.39
2018-09-03T05:43:36.129Z,96692.02
2018-09-03T05:47:00.610Z,96693.70
2018-09-03T05:50:25.325Z,96692.09
2018-09-03T05:53:49.910Z,96694.43
2018-09-03T05:57:14.531Z,96698.69
2018-09-03T06:00:40.057Z,96699.38
2018-09-03T06:04:05.063Z,96700.18
2018-09-03T06:08:54.106Z,96700.80
2018-09-03T06:12:18.823Z,96701.22
2018-09-03T06:15:43.518Z,96700.91
2018-09-03T06:19:08.208Z,96700.98
2018-09-03T06:22:32.784Z,96689.14
2018-09-03T06:25:57.532Z,96685.30
2018-09-03T06:29:22.176Z,96692.28
2018-09-03T06:32:46.826Z,96693.61
2018-09-03T06:36:11.437Z,96694.83
2018-09-03T06:39:36.206Z,96692.91
2018-09-03T06:43:00.828Z,96697.14
2018-09-03T06:46:25.471Z,96699.68
2018-09-03T06:49:50.181Z,96698.33
2018-09-03T06:53:14.879Z,96700.02
2018-09-03T06:56:39.561Z,96696.17
2018-09-03T07:00:04.374Z,96701.79
2018-09-03T07:03:29.030Z,96697.66
2018-09-03T07:06:53.672Z,96700.73
2018-09-03T07:10:18.387Z,96697.72
2018-09-03T07:13:43.084Z,96701.57
2018-09-03T07:17:07.757Z,96703.09
2018-09-03T07:20:32.416Z,96700.27
2018-09-03T07:23:57.095Z,96698.76
2018-09-03T07:27:21.779Z,96695.48
2018-09-03T07:30:46.380Z,96698.91
2018-09-03T07:34:11.049Z,96700.33
2018-09-03T07:37:35.646Z,96706.50
2018-09-03T07:41:00.366Z,96710.24
2018-09-03T07:44:24.995Z,96710.84
2018-09-03T07:47:49.633Z,96709.89
2018-09-03T07:51:14.371Z,96716.04
2018-09-03T07:54:39.586Z,96722.87
2018-09-03T07:58:04.374Z,96714.77
2018-09-03T08:01:29.108Z,96717.31
2018-09-03T08:04:53.789Z,96720.86
2018-09-03T08:08:18.396Z,96726.48
2018-09-03T08:11:43.024Z,96724.71
2018-09-03T08:15:08.362Z,96721.55
2018-09-03T08:18:33.020Z,96723.98
2018-09-03T08:21:57.758Z,96722.01
2018-09-03T08:25:22.456Z,96723.17
2018-09-03T08:28:47.193Z,96719.52
2018-09-03T08:32:11.952Z,96726.71
2018-09-03T08:35:36.696Z,96727.25
2018-09-03T08:39:01.319Z,96736.03
2018-09-03T08:42:26.009Z,96732.05
2018-09-03T08:45:50.710Z,96740.11
2018-09-03T08:49:15.361Z,96733.25
2018-09-03T08:52:39.982Z,96738.67
2018-09-03T08:56:04.773Z,96738.27
2018-09-03T08:59:29.431Z,96735.58
2018-09-03T09:02:54.158Z,96740.41
2018-09-03T09:06:18.865Z,96737.22
2018-09-03T09:09:43.712Z,96732.47
2018-09-03T09:13:08.472Z,96725.89
2018-09-03T09:16:33.115Z,96727.03
2018-09-03T09:19:57.767Z,96726.61
2018-09-03T09:23:22.510Z,96722.95
2018-09-03T09:26:47.203Z,96721.11
2018-09-03T09:30:11.880Z,96722.58
2018-09-03T09:33:36.502Z,96719.77
2018-09-03T09:37:01.228Z,96722.03
2018-09-03T09:40:25.890Z,96717.60
2018-09-03T09:43:51.478Z,96713.84
2018-09-03T09:47:16.121Z,96713.28
2018-09-03T09:50:40.826Z,96710.57
2018-09-03T09:54:05.435Z,96705.65
2018-09-03T09:57:30.135Z,96710.94
2018-09-03T10:01:00.108Z,96703.37
2018-09-03T10:04:24.810Z,96696.13
2018-09-03T10:07:49.491Z,96699.50
2018-09-03T10:11:14.152Z,96693.89
2018-09-03T10:14:38.840Z,96698.07
2018-09-03T10:18:03.684Z,96698.40
2018-09-03T10:21:28.340Z,96698.80
2018-09-03T10:24:53.244Z,96690.60
2018-09-03T10:28:17.958Z,96697.61
2018-09-03T10:31:42.668Z,96690.08
2018-09-03T10:35:08.381Z,96688.57
2018-09-03T10:38:33.036Z,96684.30
2018-09-03T10:41:57.687Z,96689.45
2018-09-03T10:45:22.337Z,96686.96
2018-09-03T10:48:46.973Z,96685.64
2018-09-03T10:52:12.553Z,96673.72
2018-09-03T10:55:37.381Z,96673.72
2018-09-03T10:59:02.004Z,96672.55
2018-09-03T11:02:26.668Z,96668.22
2018-09-03T11:05:51.538Z,96669.28
2018-09-03T11:09:16.182Z,96671.67
2018-09-03T11:12:40.815Z,96661.94
2018-09-03T11:16:05.509Z,96666.52
2018-09-03T11:19:32.220Z,96664.58
2018-09-03T11:22:58.653Z,96661.80
2018-09-03T11:26:23.397Z,96655.43
2018-09-03T11:29:48.124Z,96650.77
2018-09-03T11:33:12.859Z,96651.34
2018-09-03T11:36:37.769Z,96640.68
2018-09-03T11:40:02.467Z,96645.58
2018-09-03T11:43:27.224Z,96642.70
2018-09-03T11:46:51.922Z,96647.60
2018-09-03T11:50:17.371Z,96648.84
2018-09-03T11:53:42.123Z,96650.69
2018-09-03T11:57:06.808Z,96654.16
2018-09-03T12:00:31.936Z,96655.28
2018-09-03T12:03:56.494Z,96648.16
2018-09-03T12:07:21.305Z,96648.90
2018-09-03T12:10:45.993Z,96651.22
2018-09-03T12:14:15.325Z,96654.62
2018-09-03T12:17:40.548Z,96649.22
2018-09-03T12:21:05.348Z,96647.28
2018-09-03T12:24:29.965Z,96644.04
2018-09-03T12:27:54.653Z,96646.86
2018-09-03T12:31:19.334Z,96643.62
2018-09-03T12:36:08.411Z,96629.20
2018-09-03T12:39:33.103Z,96635.59
2018-09-03T12:42:57.777Z,96627.61
2018-09-03T12:46:22.497Z,96624.89
2018-09-03T12:49:47.501Z,96625.00
2018-09-03T12:53:12.082Z,96628.34
2018-09-03T12:56:36.752Z,96627.84
2018-09-03T13:00:05.150Z,96621.70
2018-09-03T13:03:26.044Z,96624.88
2018-09-03T13:06:50.719Z,96617.66
2018-09-03T13:10:15.395Z,96619.05
2018-09-03T13:13:40.009Z,96623.94
2018-09-03T13:17:04.719Z,96630.20
2018-09-03T13:20:29.437Z,96629.64
2018-09-03T13:23:54.180Z,96631.77
2018-09-03T13:27:18.862Z,96632.12
2018-09-03T13:34:14.879Z,96621.66
2018-09-03T13:37:39.614Z,96616.86
2018-09-03T13:41:04.498Z,96613.62
2018-09-03T13:44:29.275Z,96609.48
2018-09-03T13:47:53.960Z,96606.00
2018-09-03T13:51:18.684Z,96607.81
2018-09-03T13:54:43.383Z,96606.08
2018-09-03T13:58:08.043Z,96595.81
2018-09-03T14:01:32.708Z,96599.50
2018-09-03T14:04:57.349Z,96589.02
2018-09-03T14:08:21.991Z,96587.30
2018-09-03T14:11:46.703Z,96585.38
2018-09-03T14:15:11.448Z,96593.62
2018-09-03T14:18:38.360Z,96586.20
2018-09-03T14:22:03.651Z,96588.97
2018-09-03T14:25:29.208Z,96592.78
2018-09-03T14:28:54.270Z,96595.06
2018-09-03T14:32:19.693Z,96593.83
2018-09-03T14:35:44.541Z,96592.64
2018-09-03T14:39:12.434Z,96591.40
2018-09-03T14:42:38.124Z,96591.73
2018-09-03T14:46:03.008Z,96594.28
2018-09-03T14:49:28.576Z,96595.33
2018-09-03T14:52:53.864Z,96596.50
2018-09-03T14:56:20.060Z,96602.81
2018-09-03T14:59:45.443Z,96601.41
2018-09-03T15:03:10.348Z,96602.27
2018-09-03T15:06:35.591Z,96600.81
2018-09-03T15:10:00.591Z,96600.13
2018-09-03T15:13:25.430Z,96596.23
2018-09-03T15:16:51.538Z,96596.11
2018-09-03T15:20:17.386Z,96594.50
2018-09-03T15:23:42.171Z,96601.70
2018-09-03T15:27:06.925Z,96599.09
2018-09-03T15:30:31.589Z,96601.22
2018-09-03T15:33:56.286Z,96598.45
2018-09-03T15:37:20.971Z,96585.22
2018-09-03T15:40:45.742Z,96588.97
2018-09-03T15:44:10.763Z,96591.11
2018-09-03T15:47:35.748Z,96594.09
2018-09-03T15:51:00.396Z,96595.83
2018-09-03T15:54:25.039Z,96599.52
2018-09-03T15:57:49.703Z,96602.81
2018-09-03T16:01:14.395Z,96602.55
2018-09-03T16:04:39.119Z,96598.80
2018-09-03T16:08:03.746Z,96591.03
2018-09-03T16:11:28.363Z,96597.08
2018-09-03T16:14:53.247Z,96597.34
2018-09-03T16:18:18.216Z,96595.11
2018-09-03T16:21:42.897Z,96598.67
2018-09-03T16:25:07.922Z,96596.94
2018-09-03T16:28:32.623Z,96599.27
2018-09-03T16:31:57.352Z,96600.00
2018-09-03T16:35:22.076Z,96600.37
2018-09-03T16:38:46.724Z,96600.30
2018-09-03T16:42:11.684Z,96597.31
2018-09-03T16:45:36.434Z,96605.52
2018-09-03T16:49:01.196Z,96601.77
2018-09-03T16:52:25.818Z,96602.66
2018-09-03T16:55:50.508Z,96604.98
2018-09-03T16:59:15.305Z,96602.27
2018-09-03T17:02:40.142Z,96604.19
2018-09-03T17:06:04.896Z,96603.07
2018-09-03T17:09:29.879Z,96601.52
2018-09-03T17:12:54.797Z,96604.72
2018-09-03T17:16:19.886Z,96610.31
2018-09-03T17:19:44.959Z,96605.67
2018-09-03T17:23:09.755Z,96601.85
2018-09-03T17:26:34.488Z,96609.40
2018-09-03T17:29:59.241Z,96603.70
2018-09-03T17:33:24.109Z,96606.95
2018-09-03T17:36:48.973Z,96609.77
2018-09-03T17:40:13.823Z,96615.01
2018-09-03T17:43:38.562Z,96618.25
2018-09-03T17:47:03.432Z,96615.66
2018-09-03T17:50:29.457Z,96616.05
2018-09-03T17:53:54.814Z,96614.32
2018-09-03T17:57:20.122Z,96610.14
2018-09-03T18:00:45.794Z,96619.68
2018-09-03T18:04:10.856Z,96616.75
2018-09-03T18:07:36.641Z,96625.70
2018-09-03T18:11:01.498Z,96625.92
2018-09-03T18:14:26.506Z,96625.33
2018-09-03T18:17:52.428Z,96626.75
2018-09-03T18:21:17.173Z,96630.97
2018-09-03T18:24:42.150Z,96632.17
2018-09-03T18:28:06.891Z,96625.25
2018-09-03T18:31:31.791Z,96631.13
2018-09-03T18:34:57.382Z,96633.05
2018-09-03T18:38:22.780Z,96640.08
2018-09-03T18:41:48.003Z,96637.09
2018-09-03T18:45:13.095Z,96646.75
2018-09-03T18:48:39.263Z,96651.31
2018-09-03T18:52:05.244Z,96651.92
2018-09-03T18:55:30.271Z,96650.72
2018-09-03T18:58:55.858Z,96653.72
2018-09-03T19:02:20.953Z,96656.58
2018-09-03T19:05:46.161Z,96655.74
2018-09-03T19:09:11.405Z,96655.98
2018-09-03T19:12:36.420Z,96656.92
2018-09-03T19:16:01.236Z,96650.88
2018-09-03T19:19:26.280Z,96650.52
2018-09-03T19:22:51.608Z,96651.36
2018-09-03T19:26:18.511Z,96648.94
2018-09-03T19:29:44.179Z,96651.56
2018-09-03T19:33:09.355Z,96653.50
2018-09-03T19:36:34.337Z,96655.59
2018-09-03T19:39:59.277Z,96643.56
2018-09-03T19:43:24.043Z,96648.47
2018-09-03T19:46:49.802Z,96643.80
2018-09-03T19:50:14.611Z,96637.14
2018-09-03T19:53:39.318Z,96645.23
2018-09-03T19:57:04.015Z,96649.84
2018-09-03T20:00:28.714Z,96647.30
2018-09-03T20:03:53.710Z,96645.42
2018-09-03T20:07:18.441Z,96650.04
2018-09-03T20:10:43.275Z,96647.96
2018-09-03T20:14:08.234Z,96655.50
2018-09-03T20:17:32.937Z,96654.05
2018-09-03T20:20:57.687Z,96659.42
2018-09-03T20:24:22.503Z,96652.54
2018-09-03T20:27:47.205Z,96653.84
2018-09-03T20:31:11.971Z,96656.05
2018-09-03T20:34:36.670Z,96652.38
2018-09-03T20:38:01.382Z,96645.56
2018-09-03T20:41:26.201Z,96643.88
2018-09-03T20:44:50.935Z,96648.13
2018-09-03T20:49:00.766Z,96644.65
2018-09-03T20:52:25.513Z,96649.75
2018-09-03T20:55:50.394Z,96650.35
2018-09-03T20:59:15.219Z,96642.80
2018-09-03T21:02:39.917Z,96647.53
2018-09-03T21:06:04.708Z,96641.55
2018-09-03T21:09:29.587Z,96645.00
2018-09-03T21:12:54.260Z,96648.72
2018-09-03T21:16:19.017Z,96640.11
2018-09-03T21:19:43.730Z,96654.30
2018-09-03T21:23:08.426Z,96645.95
2018-09-03T21:26:33.150Z,96649.93
2018-09-03T21:29:58.218Z,96652.55
2018-09-03T21:33:22.918Z,96648.64
2018-09-03T21:36:47.722Z,96649.48
2018-09-03T21:40:12.455Z,96641.49
2018-09-03T21:43:37.183Z,96642.95
2018-09-03T21:47:01.869Z,96648.55
2018-09-03T21:50:26.544Z,96644.11
2018-09-03T21:53:51.262Z,96647.59
2018-09-03T21:57:15.909Z,96649.09
2018-09-03T22:00:40.726Z,96655.16
2018-09-03T22:04:05.491Z,96652.33
2018-09-03T22:07:30.292Z,96645.14
2018-09-03T22:10:54.999Z,96644.12
2018-09-03T22:14:19.759Z,96644.48
2018-09-03T22:17:44.437Z,96636.95
2018-09-03T22:21:09.369Z,96635.48
2018-09-03T22:24:34.106Z,96645.69
2018-09-03T22:27:58.783Z,96635.34
2018-09-03T22:31:23.477Z,96642.28
2018-09-03T22:34:48.239Z,96650.45
2018-09-03T22:38:12.989Z,96641.49
2018-09-03T22:41:37.704Z,96641.22
2018-09-03T22:45:02.594Z,96638.52
2018-09-03T22:48:27.347Z,96633.55
2018-09-03T22:51:52.091Z,96635.30
2018-09-03T22:55:16.775Z,96626.97
2018-09-03T22:58:41.429Z,96633.53
2018-09-03T23:02:06.132Z,96639.91
2018-09-03T23:05:30.928Z,96640.92
2018-09-03T23:08:55.604Z,96642.97
2018-09-03T23:12:20.331Z,96647.14
2018-09-03T23:15:50.411Z,96641.86
2018-09-03T23:19:15.088Z,96636.97
2018-09-03T23:22:39.734Z,96634.63
2018-09-03T23:26:04.408Z,96633.80
2018-09-03T23:29:29.084Z,96641.42
2018-09-03T23:32:53.748Z,96643.50
2018-09-03T23:36:18.387Z,96635.38
2018-09-03T23:39:43.145Z,96635.94
2018-09-03T23:43:07.839Z,96630.71
2018-09-03T23:46:32.765Z,96630.31
2018-09-03T23:49:57.513Z,96630.28
2018-09-03T23:53:22.263Z,96621.73
2018-09-03T23:56:46.980Z,96622.63
